sensor_id;sensor_type;location;lat;lon;timestamp;P1;durP1;ratioP1;P2;durP2;ratioP2
3259;SDS011;22469;48.150;14.004;2023-03-03T00:00:48;29.77;;;21.13;;
3259;SDS011;22469;48.150;14.004;2023-03-03T00:03:18;29.13;;;20.63;;
3259;SDS011;22469;48.150;14.004;2023-03-03T00:05:48;31.67;;;20.73;;
3259;SDS011;22469;48.150;14.004;2023-03-03T00:08:17;28.10;;;20.20;;
3259;SDS011;22469;48.150;14.004;2023-03-03T00:10:46;32.37;;;20.53;;
3259;SDS011;22469;48.150;14.004;2023-03-03T00:13:20;32.67;;;21.40;;
3259;SDS011;22469;48.150;14.004;2023-03-03T00:15:50;33.50;;;20.00;;
3259;SDS011;22469;48.150;14.004;2023-03-03T00:20:57;29.83;;;20.77;;
3259;SDS011;22469;48.150;14.004;2023-03-03T00:23:29;33.10;;;23.70;;
3259;SDS011;22469;48.150;14.004;2023-03-03T00:26:00;34.70;;;22.60;;
3259;SDS011;22469;48.150;14.004;2023-03-03T00:28:30;30.40;;;23.20;;
3259;SDS011;22469;48.150;14.004;2023-03-03T00:31:17;28.60;;;20.90;;
3259;SDS011;22469;48.150;14.004;2023-03-03T00:33:48;29.13;;;20.00;;
3259;SDS011;22469;48.150;14.004;2023-03-03T00:36:21;35.63;;;22.30;;
3259;SDS011;22469;48.150;14.004;2023-03-03T00:41:44;36.67;;;22.13;;
3259;SDS011;22469;48.150;14.004;2023-03-03T00:44:37;35.27;;;23.60;;
3259;SDS011;22469;48.150;14.004;2023-03-03T00:47:34;34.20;;;21.73;;
3259;SDS011;22469;48.150;14.004;2023-03-03T00:52:37;34.77;;;22.47;;
3259;SDS011;22469;48.150;14.004;2023-03-03T00:55:09;40.47;;;25.63;;
3259;SDS011;22469;48.150;14.004;2023-03-03T00:57:37;40.80;;;24.57;;
3259;SDS011;22469;48.150;14.004;2023-03-03T01:00:04;34.60;;;21.70;;
3259;SDS011;22469;48.150;14.004;2023-03-03T01:02:32;36.00;;;24.87;;
3259;SDS011;22469;48.150;14.004;2023-03-03T01:04:59;38.37;;;25.47;;
3259;SDS011;22469;48.150;14.004;2023-03-03T01:07:26;35.13;;;23.63;;
3259;SDS011;22469;48.150;14.004;2023-03-03T01:09:53;42.13;;;25.50;;
3259;SDS011;22469;48.150;14.004;2023-03-03T01:12:20;34.80;;;23.20;;
3259;SDS011;22469;48.150;14.004;2023-03-03T01:14:47;37.60;;;21.83;;
3259;SDS011;22469;48.150;14.004;2023-03-03T01:17:15;36.63;;;23.90;;
3259;SDS011;22469;48.150;14.004;2023-03-03T01:19:42;31.33;;;22.87;;
3259;SDS011;22469;48.150;14.004;2023-03-03T01:22:09;37.20;;;23.93;;
3259;SDS011;22469;48.150;14.004;2023-03-03T01:24:36;40.47;;;25.90;;
3259;SDS011;22469;48.150;14.004;2023-03-03T01:27:03;34.03;;;22.70;;
3259;SDS011;22469;48.150;14.004;2023-03-03T01:29:30;35.70;;;22.33;;
3259;SDS011;22469;48.150;14.004;2023-03-03T01:31:57;38.47;;;23.57;;
3259;SDS011;22469;48.150;14.004;2023-03-03T01:34:24;38.33;;;23.97;;
3259;SDS011;22469;48.150;14.004;2023-03-03T01:36:51;37.13;;;23.80;;
3259;SDS011;22469;48.150;14.004;2023-03-03T01:39:18;39.57;;;24.27;;
3259;SDS011;22469;48.150;14.004;2023-03-03T01:41:45;43.93;;;24.93;;
3259;SDS011;22469;48.150;14.004;2023-03-03T01:44:14;36.73;;;24.40;;
3259;SDS011;22469;48.150;14.004;2023-03-03T01:49:35;41.10;;;27.90;;
3259;SDS011;22469;48.150;14.004;2023-03-03T01:52:38;36.97;;;25.50;;
3259;SDS011;22469;48.150;14.004;2023-03-03T01:55:11;40.30;;;26.83;;
3259;SDS011;22469;48.150;14.004;2023-03-03T01:57:51;36.70;;;25.13;;
3259;SDS011;22469;48.150;14.004;2023-03-03T02:00:34;41.77;;;26.30;;
3259;SDS011;22469;48.150;14.004;2023-03-03T02:03:05;36.53;;;25.97;;
3259;SDS011;22469;48.150;14.004;2023-03-03T02:05:32;41.17;;;27.60;;
3259;SDS011;22469;48.150;14.004;2023-03-03T02:08:02;37.93;;;24.83;;
3259;SDS011;22469;48.150;14.004;2023-03-03T02:10:30;38.97;;;24.33;;
3259;SDS011;22469;48.150;14.004;2023-03-03T02:12:57;37.83;;;26.60;;
3259;SDS011;22469;48.150;14.004;2023-03-03T02:15:32;41.80;;;25.40;;
3259;SDS011;22469;48.150;14.004;2023-03-03T02:18:04;39.07;;;25.90;;
3259;SDS011;22469;48.150;14.004;2023-03-03T02:26:26;41.33;;;26.40;;
3259;SDS011;22469;48.150;14.004;2023-03-03T02:28:56;40.57;;;26.10;;
3259;SDS011;22469;48.150;14.004;2023-03-03T02:31:25;42.07;;;27.53;;
3259;SDS011;22469;48.150;14.004;2023-03-03T02:33:55;48.07;;;28.73;;
3259;SDS011;22469;48.150;14.004;2023-03-03T02:36:25;41.60;;;26.27;;
3259;SDS011;22469;48.150;14.004;2023-03-03T02:39:21;43.50;;;27.60;;
3259;SDS011;22469;48.150;14.004;2023-03-03T02:42:01;48.20;;;26.77;;
3259;SDS011;22469;48.150;14.004;2023-03-03T02:44:33;42.10;;;26.57;;
3259;SDS011;22469;48.150;14.004;2023-03-03T02:47:01;44.53;;;26.20;;
3259;SDS011;22469;48.150;14.004;2023-03-03T02:49:29;40.70;;;25.87;;
3259;SDS011;22469;48.150;14.004;2023-03-03T02:51:59;45.60;;;27.57;;
3259;SDS011;22469;48.150;14.004;2023-03-03T02:54:30;40.30;;;26.27;;
3259;SDS011;22469;48.150;14.004;2023-03-03T02:56:58;42.03;;;27.07;;
3259;SDS011;22469;48.150;14.004;2023-03-03T02:59:26;45.90;;;28.30;;
3259;SDS011;22469;48.150;14.004;2023-03-03T03:01:54;43.33;;;28.50;;
3259;SDS011;22469;48.150;14.004;2023-03-03T03:04:22;43.07;;;25.63;;
3259;SDS011;22469;48.150;14.004;2023-03-03T03:06:52;45.07;;;26.70;;
3259;SDS011;22469;48.150;14.004;2023-03-03T03:09:21;49.17;;;28.43;;
3259;SDS011;22469;48.150;14.004;2023-03-03T03:11:50;40.93;;;27.03;;
3259;SDS011;22469;48.150;14.004;2023-03-03T03:14:18;43.77;;;28.97;;
3259;SDS011;22469;48.150;14.004;2023-03-03T03:16:44;41.70;;;26.77;;
3259;SDS011;22469;48.150;14.004;2023-03-03T03:19:12;43.67;;;28.53;;
3259;SDS011;22469;48.150;14.004;2023-03-03T03:21:39;47.33;;;28.23;;
3259;SDS011;22469;48.150;14.004;2023-03-03T03:24:06;47.97;;;29.20;;
3259;SDS011;22469;48.150;14.004;2023-03-03T03:26:33;50.23;;;29.20;;
3259;SDS011;22469;48.150;14.004;2023-03-03T03:29:00;48.93;;;29.27;;
3259;SDS011;22469;48.150;14.004;2023-03-03T03:31:27;50.43;;;30.20;;
3259;SDS011;22469;48.150;14.004;2023-03-03T03:33:54;48.93;;;30.30;;
3259;SDS011;22469;48.150;14.004;2023-03-03T03:36:21;44.67;;;28.40;;
3259;SDS011;22469;48.150;14.004;2023-03-03T03:38:48;46.80;;;29.60;;
3259;SDS011;22469;48.150;14.004;2023-03-03T03:41:15;46.37;;;29.03;;
3259;SDS011;22469;48.150;14.004;2023-03-03T03:43:42;43.43;;;28.63;;
3259;SDS011;22469;48.150;14.004;2023-03-03T03:46:09;57.60;;;31.50;;
3259;SDS011;22469;48.150;14.004;2023-03-03T03:48:37;49.17;;;29.80;;
3259;SDS011;22469;48.150;14.004;2023-03-03T03:51:04;41.73;;;28.07;;
3259;SDS011;22469;48.150;14.004;2023-03-03T03:53:31;38.40;;;25.63;;
3259;SDS011;22469;48.150;14.004;2023-03-03T03:55:58;44.87;;;29.20;;
3259;SDS011;22469;48.150;14.004;2023-03-03T03:58:25;48.30;;;27.47;;
3259;SDS011;22469;48.150;14.004;2023-03-03T04:00:52;46.20;;;28.53;;
3259;SDS011;22469;48.150;14.004;2023-03-03T04:03:19;40.97;;;27.20;;
3259;SDS011;22469;48.150;14.004;2023-03-03T04:05:47;46.93;;;29.90;;
3259;SDS011;22469;48.150;14.004;2023-03-03T04:08:14;42.03;;;27.00;;
3259;SDS011;22469;48.150;14.004;2023-03-03T04:10:41;43.10;;;27.50;;
3259;SDS011;22469;48.150;14.004;2023-03-03T04:13:08;47.23;;;26.33;;
3259;SDS011;22469;48.150;14.004;2023-03-03T04:15:35;41.67;;;27.57;;
3259;SDS011;22469;48.150;14.004;2023-03-03T04:18:02;44.40;;;28.70;;
3259;SDS011;22469;48.150;14.004;2023-03-03T04:20:30;42.30;;;27.20;;
3259;SDS011;22469;48.150;14.004;2023-03-03T04:22:57;52.27;;;29.33;;
3259;SDS011;22469;48.150;14.004;2023-03-03T04:25:24;43.27;;;27.03;;
3259;SDS011;22469;48.150;14.004;2023-03-03T04:27:51;49.20;;;29.77;;
3259;SDS011;22469;48.150;14.004;2023-03-03T04:30:19;42.73;;;29.13;;
3259;SDS011;22469;48.150;14.004;2023-03-03T04:32:46;47.70;;;30.67;;
3259;SDS011;22469;48.150;14.004;2023-03-03T04:35:15;49.50;;;31.00;;
3259;SDS011;22469;48.150;14.004;2023-03-03T04:37:42;50.90;;;32.23;;
3259;SDS011;22469;48.150;14.004;2023-03-03T04:40:09;52.13;;;29.27;;
3259;SDS011;22469;48.150;14.004;2023-03-03T04:42:36;54.37;;;31.03;;
3259;SDS011;22469;48.150;14.004;2023-03-03T04:45:04;47.43;;;31.00;;
3259;SDS011;22469;48.150;14.004;2023-03-03T04:47:32;46.30;;;31.20;;
3259;SDS011;22469;48.150;14.004;2023-03-03T04:49:59;46.77;;;28.00;;
3259;SDS011;22469;48.150;14.004;2023-03-03T04:52:26;47.37;;;29.60;;
3259;SDS011;22469;48.150;14.004;2023-03-03T04:54:53;48.77;;;29.37;;
3259;SDS011;22469;48.150;14.004;2023-03-03T04:57:21;50.10;;;31.17;;
3259;SDS011;22469;48.150;14.004;2023-03-03T04:59:48;49.53;;;31.60;;
3259;SDS011;22469;48.150;14.004;2023-03-03T05:02:15;48.17;;;29.97;;
3259;SDS011;22469;48.150;14.004;2023-03-03T05:04:43;50.13;;;30.90;;
3259;SDS011;22469;48.150;14.004;2023-03-03T05:07:10;45.37;;;30.13;;
3259;SDS011;22469;48.150;14.004;2023-03-03T05:09:37;54.20;;;32.07;;
3259;SDS011;22469;48.150;14.004;2023-03-03T05:12:04;50.17;;;31.80;;
3259;SDS011;22469;48.150;14.004;2023-03-03T05:14:32;54.70;;;32.70;;
3259;SDS011;22469;48.150;14.004;2023-03-03T05:16:59;44.20;;;30.20;;
3259;SDS011;22469;48.150;14.004;2023-03-03T05:19:26;48.40;;;30.80;;
3259;SDS011;22469;48.150;14.004;2023-03-03T05:21:53;52.10;;;31.53;;
3259;SDS011;22469;48.150;14.004;2023-03-03T05:24:20;53.60;;;32.97;;
3259;SDS011;22469;48.150;14.004;2023-03-03T05:26:47;45.50;;;33.63;;
3259;SDS011;22469;48.150;14.004;2023-03-03T05:29:15;50.17;;;31.03;;
3259;SDS011;22469;48.150;14.004;2023-03-03T05:31:42;48.77;;;32.10;;
3259;SDS011;22469;48.150;14.004;2023-03-03T05:34:11;46.70;;;29.57;;
3259;SDS011;22469;48.150;14.004;2023-03-03T05:36:38;46.30;;;30.00;;
3259;SDS011;22469;48.150;14.004;2023-03-03T05:39:05;40.93;;;28.03;;
3259;SDS011;22469;48.150;14.004;2023-03-03T05:41:32;41.40;;;29.63;;
3259;SDS011;22469;48.150;14.004;2023-03-03T05:44:02;47.70;;;29.87;;
3259;SDS011;22469;48.150;14.004;2023-03-03T05:46:30;42.97;;;29.20;;
3259;SDS011;22469;48.150;14.004;2023-03-03T05:48:57;43.47;;;28.63;;
3259;SDS011;22469;48.150;14.004;2023-03-03T05:51:24;46.50;;;30.13;;
3259;SDS011;22469;48.150;14.004;2023-03-03T05:53:51;46.43;;;30.47;;
3259;SDS011;22469;48.150;14.004;2023-03-03T05:56:21;42.47;;;28.73;;
3259;SDS011;22469;48.150;14.004;2023-03-03T05:58:48;45.13;;;30.10;;
3259;SDS011;22469;48.150;14.004;2023-03-03T06:01:15;47.40;;;30.37;;
3259;SDS011;22469;48.150;14.004;2023-03-03T06:03:43;47.57;;;30.53;;
3259;SDS011;22469;48.150;14.004;2023-03-03T06:06:10;49.13;;;30.47;;
3259;SDS011;22469;48.150;14.004;2023-03-03T06:08:39;51.30;;;31.40;;
3259;SDS011;22469;48.150;14.004;2023-03-03T06:11:06;54.00;;;31.60;;
3259;SDS011;22469;48.150;14.004;2023-03-03T06:13:33;47.33;;;28.60;;
3259;SDS011;22469;48.150;14.004;2023-03-03T06:16:00;50.20;;;30.27;;
3259;SDS011;22469;48.150;14.004;2023-03-03T06:18:27;48.13;;;30.17;;
3259;SDS011;22469;48.150;14.004;2023-03-03T06:20:54;45.50;;;30.20;;
3259;SDS011;22469;48.150;14.004;2023-03-03T06:23:22;49.80;;;29.90;;
3259;SDS011;22469;48.150;14.004;2023-03-03T06:25:49;52.77;;;32.80;;
3259;SDS011;22469;48.150;14.004;2023-03-03T06:28:16;56.23;;;32.00;;
3259;SDS011;22469;48.150;14.004;2023-03-03T06:30:43;53.43;;;33.47;;
3259;SDS011;22469;48.150;14.004;2023-03-03T06:33:10;49.93;;;30.73;;
3259;SDS011;22469;48.150;14.004;2023-03-03T06:35:37;54.07;;;31.83;;
3259;SDS011;22469;48.150;14.004;2023-03-03T06:38:04;48.50;;;30.00;;
3259;SDS011;22469;48.150;14.004;2023-03-03T06:40:31;59.50;;;31.53;;
3259;SDS011;22469;48.150;14.004;2023-03-03T06:42:58;54.40;;;30.93;;
3259;SDS011;22469;48.150;14.004;2023-03-03T06:45:27;52.17;;;31.33;;
3259;SDS011;22469;48.150;14.004;2023-03-03T06:47:54;52.80;;;32.03;;
3259;SDS011;22469;48.150;14.004;2023-03-03T06:50:21;54.33;;;32.30;;
3259;SDS011;22469;48.150;14.004;2023-03-03T06:52:49;52.80;;;31.77;;
3259;SDS011;22469;48.150;14.004;2023-03-03T06:55:32;53.00;;;31.80;;
3259;SDS011;22469;48.150;14.004;2023-03-03T06:57:59;43.37;;;26.20;;
3259;SDS011;22469;48.150;14.004;2023-03-03T07:00:28;50.67;;;30.80;;
3259;SDS011;22469;48.150;14.004;2023-03-03T07:02:58;53.80;;;31.97;;
3259;SDS011;22469;48.150;14.004;2023-03-03T07:05:33;60.23;;;34.57;;
3259;SDS011;22469;48.150;14.004;2023-03-03T07:08:00;52.80;;;32.10;;
3259;SDS011;22469;48.150;14.004;2023-03-03T07:10:27;59.40;;;32.20;;
3259;SDS011;22469;48.150;14.004;2023-03-03T07:13:18;56.17;;;31.00;;
3259;SDS011;22469;48.150;14.004;2023-03-03T07:15:47;56.40;;;34.07;;
3259;SDS011;22469;48.150;14.004;2023-03-03T07:21:13;51.80;;;33.80;;
3259;SDS011;22469;48.150;14.004;2023-03-03T07:23:57;58.60;;;32.83;;
3259;SDS011;22469;48.150;14.004;2023-03-03T07:26:28;51.90;;;31.47;;
3259;SDS011;22469;48.150;14.004;2023-03-03T07:29:32;57.63;;;31.63;;
3259;SDS011;22469;48.150;14.004;2023-03-03T07:31:57;55.80;;;32.50;;
3259;SDS011;22469;48.150;14.004;2023-03-03T07:39:57;53.10;;;31.80;;
3259;SDS011;22469;48.150;14.004;2023-03-03T07:42:37;51.80;;;29.67;;
3259;SDS011;22469;48.150;14.004;2023-03-03T07:45:19;67.97;;;34.40;;
3259;SDS011;22469;48.150;14.004;2023-03-03T07:47:50;61.33;;;32.10;;
3259;SDS011;22469;48.150;14.004;2023-03-03T07:50:18;59.83;;;31.60;;
3259;SDS011;22469;48.150;14.004;2023-03-03T08:03:15;60.57;;;34.27;;
3259;SDS011;22469;48.150;14.004;2023-03-03T08:05:48;65.43;;;35.63;;
3259;SDS011;22469;48.150;14.004;2023-03-03T08:08:35;58.60;;;34.17;;
3259;SDS011;22469;48.150;14.004;2023-03-03T08:11:02;60.10;;;36.43;;
3259;SDS011;22469;48.150;14.004;2023-03-03T08:16:22;58.37;;;34.07;;
3259;SDS011;22469;48.150;14.004;2023-03-03T08:19:04;54.00;;;35.93;;
3259;SDS011;22469;48.150;14.004;2023-03-03T08:21:32;61.97;;;34.60;;
3259;SDS011;22469;48.150;14.004;2023-03-03T08:24:01;59.57;;;32.90;;
3259;SDS011;22469;48.150;14.004;2023-03-03T08:26:28;54.60;;;34.27;;
3259;SDS011;22469;48.150;14.004;2023-03-03T08:28:55;58.50;;;33.70;;
3259;SDS011;22469;48.150;14.004;2023-03-03T08:31:22;52.50;;;31.37;;
3259;SDS011;22469;48.150;14.004;2023-03-03T08:34:06;60.30;;;32.83;;
3259;SDS011;22469;48.150;14.004;2023-03-03T08:36:33;65.27;;;37.10;;
3259;SDS011;22469;48.150;14.004;2023-03-03T08:39:01;59.30;;;34.00;;
3259;SDS011;22469;48.150;14.004;2023-03-03T08:41:30;62.60;;;35.90;;
3259;SDS011;22469;48.150;14.004;2023-03-03T08:43:57;63.20;;;37.47;;
3259;SDS011;22469;48.150;14.004;2023-03-03T08:46:24;55.13;;;31.23;;
3259;SDS011;22469;48.150;14.004;2023-03-03T08:48:52;57.93;;;35.90;;
3259;SDS011;22469;48.150;14.004;2023-03-03T08:51:57;61.20;;;32.40;;
3259;SDS011;22469;48.150;14.004;2023-03-03T08:54:26;61.33;;;36.27;;
3259;SDS011;22469;48.150;14.004;2023-03-03T08:56:53;61.90;;;35.50;;
3259;SDS011;22469;48.150;14.004;2023-03-03T08:59:20;63.77;;;34.80;;
3259;SDS011;22469;48.150;14.004;2023-03-03T09:01:47;54.17;;;32.07;;
3259;SDS011;22469;48.150;14.004;2023-03-03T09:04:14;62.30;;;35.50;;
3259;SDS011;22469;48.150;14.004;2023-03-03T09:06:41;66.30;;;37.70;;
3259;SDS011;22469;48.150;14.004;2023-03-03T09:09:08;59.50;;;36.00;;
3259;SDS011;22469;48.150;14.004;2023-03-03T09:11:36;53.60;;;33.63;;
3259;SDS011;22469;48.150;14.004;2023-03-03T09:14:10;58.07;;;32.60;;
3259;SDS011;22469;48.150;14.004;2023-03-03T09:16:40;62.20;;;32.37;;
3259;SDS011;22469;48.150;14.004;2023-03-03T09:19:25;45.10;;;29.60;;
3259;SDS011;22469;48.150;14.004;2023-03-03T09:21:56;51.13;;;31.90;;
3259;SDS011;22469;48.150;14.004;2023-03-03T09:24:35;53.37;;;32.83;;
3259;SDS011;22469;48.150;14.004;2023-03-03T09:27:06;54.10;;;31.07;;
3259;SDS011;22469;48.150;14.004;2023-03-03T09:29:53;54.97;;;32.20;;
3259;SDS011;22469;48.150;14.004;2023-03-03T09:32:23;52.50;;;30.67;;
3259;SDS011;22469;48.150;14.004;2023-03-03T09:38:15;47.57;;;31.20;;
3259;SDS011;22469;48.150;14.004;2023-03-03T09:55:11;53.03;;;29.43;;
3259;SDS011;22469;48.150;14.004;2023-03-03T09:57:54;54.80;;;31.47;;
3259;SDS011;22469;48.150;14.004;2023-03-03T10:12:37;48.23;;;27.47;;
3259;SDS011;22469;48.150;14.004;2023-03-03T10:18:54;42.20;;;27.70;;
3259;SDS011;22469;48.150;14.004;2023-03-03T10:21:44;40.10;;;25.00;;
3259;SDS011;22469;48.150;14.004;2023-03-03T10:35:38;39.50;;;28.27;;
3259;SDS011;22469;48.150;14.004;2023-03-03T10:42:03;39.77;;;26.30;;
3259;SDS011;22469;48.150;14.004;2023-03-03T10:50:47;37.40;;;25.10;;
3259;SDS011;22469;48.150;14.004;2023-03-03T11:08:21;35.17;;;23.60;;
3259;SDS011;22469;48.150;14.004;2023-03-03T11:11:33;32.17;;;23.20;;
3259;SDS011;22469;48.150;14.004;2023-03-03T11:17:33;37.60;;;24.27;;
3259;SDS011;22469;48.150;14.004;2023-03-03T11:33:09;40.10;;;27.47;;
3259;SDS011;22469;48.150;14.004;2023-03-03T11:39:00;39.03;;;27.63;;
3259;SDS011;22469;48.150;14.004;2023-03-03T11:44:53;36.70;;;26.13;;
3259;SDS011;22469;48.150;14.004;2023-03-03T11:47:52;39.57;;;26.77;;
3259;SDS011;22469;48.150;14.004;2023-03-03T11:50:42;34.40;;;24.57;;
3259;SDS011;22469;48.150;14.004;2023-03-03T11:53:24;37.53;;;25.60;;
3259;SDS011;22469;48.150;14.004;2023-03-03T11:56:07;37.87;;;24.97;;
3259;SDS011;22469;48.150;14.004;2023-03-03T11:58:57;36.60;;;25.40;;
3259;SDS011;22469;48.150;14.004;2023-03-03T12:01:41;32.20;;;21.83;;
3259;SDS011;22469;48.150;14.004;2023-03-03T12:04:15;30.40;;;22.20;;
3259;SDS011;22469;48.150;14.004;2023-03-03T12:07:02;34.43;;;22.97;;
3259;SDS011;22469;48.150;14.004;2023-03-03T12:09:56;32.57;;;20.63;;
3259;SDS011;22469;48.150;14.004;2023-03-03T12:12:41;29.73;;;22.17;;
3259;SDS011;22469;48.150;14.004;2023-03-03T12:24:04;31.87;;;21.23;;
3259;SDS011;22469;48.150;14.004;2023-03-03T12:41:36;28.43;;;20.80;;
3259;SDS011;22469;48.150;14.004;2023-03-03T12:52:52;28.20;;;20.40;;
3259;SDS011;22469;48.150;14.004;2023-03-03T12:56:29;28.33;;;21.50;;
3259;SDS011;22469;48.150;14.004;2023-03-03T13:05:28;23.53;;;17.40;;
3259;SDS011;22469;48.150;14.004;2023-03-03T13:17:06;22.47;;;16.43;;
3259;SDS011;22469;48.150;14.004;2023-03-03T13:19:48;28.03;;;19.27;;
3259;SDS011;22469;48.150;14.004;2023-03-03T13:22:25;23.50;;;17.87;;
3259;SDS011;22469;48.150;14.004;2023-03-03T13:25:13;27.40;;;18.93;;
3259;SDS011;22469;48.150;14.004;2023-03-03T13:27:52;26.07;;;18.20;;
3259;SDS011;22469;48.150;14.004;2023-03-03T13:30:29;24.27;;;17.87;;
3259;SDS011;22469;48.150;14.004;2023-03-03T13:33:07;27.57;;;18.30;;
3259;SDS011;22469;48.150;14.004;2023-03-03T13:36:16;22.90;;;17.57;;
3259;SDS011;22469;48.150;14.004;2023-03-03T13:38:48;24.10;;;19.23;;
3259;SDS011;22469;48.150;14.004;2023-03-03T13:41:30;26.43;;;18.93;;
3259;SDS011;22469;48.150;14.004;2023-03-03T13:44:09;24.57;;;19.10;;
3259;SDS011;22469;48.150;14.004;2023-03-03T13:52:32;26.27;;;18.70;;
3259;SDS011;22469;48.150;14.004;2023-03-03T13:55:39;32.20;;;19.07;;
3259;SDS011;22469;48.150;14.004;2023-03-03T14:01:16;28.80;;;19.47;;
3259;SDS011;22469;48.150;14.004;2023-03-03T14:07:19;32.47;;;21.43;;
3259;SDS011;22469;48.150;14.004;2023-03-03T14:13:07;29.97;;;19.83;;
3259;SDS011;22469;48.150;14.004;2023-03-03T14:21:11;28.47;;;20.17;;
3259;SDS011;22469;48.150;14.004;2023-03-03T14:24:06;29.27;;;21.43;;
3259;SDS011;22469;48.150;14.004;2023-03-03T14:26:49;27.67;;;20.20;;
3259;SDS011;22469;48.150;14.004;2023-03-03T14:31:56;27.00;;;18.67;;
3259;SDS011;22469;48.150;14.004;2023-03-03T14:34:37;33.60;;;20.07;;
3259;SDS011;22469;48.150;14.004;2023-03-03T14:37:24;33.73;;;22.70;;
3259;SDS011;22469;48.150;14.004;2023-03-03T14:45:35;33.47;;;22.40;;
3259;SDS011;22469;48.150;14.004;2023-03-03T14:48:14;30.07;;;21.67;;
3259;SDS011;22469;48.150;14.004;2023-03-03T14:55:48;33.53;;;22.57;;
3259;SDS011;22469;48.150;14.004;2023-03-03T15:03:49;32.20;;;22.63;;
3259;SDS011;22469;48.150;14.004;2023-03-03T15:06:49;34.17;;;25.83;;
3259;SDS011;22469;48.150;14.004;2023-03-03T15:11:50;35.03;;;24.60;;
3259;SDS011;22469;48.150;14.004;2023-03-03T15:14:21;36.30;;;25.23;;
3259;SDS011;22469;48.150;14.004;2023-03-03T15:17:23;40.70;;;25.80;;
3259;SDS011;22469;48.150;14.004;2023-03-03T15:22:50;34.30;;;24.87;;
3259;SDS011;22469;48.150;14.004;2023-03-03T15:25:46;39.27;;;26.43;;
3259;SDS011;22469;48.150;14.004;2023-03-03T15:28:38;43.80;;;26.40;;
3259;SDS011;22469;48.150;14.004;2023-03-03T15:42:23;40.10;;;27.50;;
3259;SDS011;22469;48.150;14.004;2023-03-03T15:51:23;40.40;;;29.13;;
3259;SDS011;22469;48.150;14.004;2023-03-03T15:54:46;42.43;;;28.30;;
3259;SDS011;22469;48.150;14.004;2023-03-03T16:03:25;45.50;;;30.20;;
3259;SDS011;22469;48.150;14.004;2023-03-03T16:06:04;47.07;;;30.97;;
3259;SDS011;22469;48.150;14.004;2023-03-03T16:09:05;48.10;;;30.20;;
3259;SDS011;22469;48.150;14.004;2023-03-03T16:11:59;46.73;;;31.60;;
3259;SDS011;22469;48.150;14.004;2023-03-03T16:14:46;45.00;;;30.00;;
3259;SDS011;22469;48.150;14.004;2023-03-03T16:34:39;49.27;;;33.17;;
3259;SDS011;22469;48.150;14.004;2023-03-03T16:37:30;46.00;;;30.93;;
3259;SDS011;22469;48.150;14.004;2023-03-03T16:45:59;55.03;;;32.67;;
3259;SDS011;22469;48.150;14.004;2023-03-03T17:00:39;56.80;;;32.20;;
3259;SDS011;22469;48.150;14.004;2023-03-03T17:06:05;53.53;;;34.23;;
3259;SDS011;22469;48.150;14.004;2023-03-03T17:11:30;52.17;;;34.90;;
3259;SDS011;22469;48.150;14.004;2023-03-03T17:26:02;84.53;;;48.40;;
3259;SDS011;22469;48.150;14.004;2023-03-03T17:45:58;59.20;;;35.30;;
3259;SDS011;22469;48.150;14.004;2023-03-03T17:48:43;64.50;;;37.33;;
3259;SDS011;22469;48.150;14.004;2023-03-03T18:17:33;59.17;;;33.17;;
3259;SDS011;22469;48.150;14.004;2023-03-03T18:23:32;52.93;;;32.90;;
3259;SDS011;22469;48.150;14.004;2023-03-03T18:34:37;58.40;;;34.17;;
3259;SDS011;22469;48.150;14.004;2023-03-03T18:42:37;53.90;;;34.30;;
3259;SDS011;22469;48.150;14.004;2023-03-03T18:48:22;51.60;;;33.30;;
3259;SDS011;22469;48.150;14.004;2023-03-03T18:50:46;54.90;;;33.97;;
3259;SDS011;22469;48.150;14.004;2023-03-03T18:53:25;53.50;;;31.97;;
3259;SDS011;22469;48.150;14.004;2023-03-03T18:56:02;56.37;;;34.80;;
3259;SDS011;22469;48.150;14.004;2023-03-03T18:58:39;58.93;;;35.17;;
3259;SDS011;22469;48.150;14.004;2023-03-03T19:09:03;63.53;;;36.50;;
3259;SDS011;22469;48.150;14.004;2023-03-03T19:11:36;53.00;;;35.70;;
3259;SDS011;22469;48.150;14.004;2023-03-03T19:14:18;57.27;;;34.53;;
3259;SDS011;22469;48.150;14.004;2023-03-03T19:17:40;54.70;;;32.47;;
3259;SDS011;22469;48.150;14.004;2023-03-03T19:22:44;60.57;;;31.97;;
3259;SDS011;22469;48.150;14.004;2023-03-03T19:25:15;56.73;;;34.37;;
3259;SDS011;22469;48.150;14.004;2023-03-03T19:28:17;59.07;;;34.73;;
3259;SDS011;22469;48.150;14.004;2023-03-03T19:40:21;64.20;;;34.80;;
3259;SDS011;22469;48.150;14.004;2023-03-03T19:47:20;63.57;;;36.73;;
3259;SDS011;22469;48.150;14.004;2023-03-03T19:56:04;65.23;;;40.27;;
3259;SDS011;22469;48.150;14.004;2023-03-03T20:11:09;66.37;;;39.50;;
3259;SDS011;22469;48.150;14.004;2023-03-03T20:17:12;69.07;;;39.67;;
3259;SDS011;22469;48.150;14.004;2023-03-03T20:22:57;71.97;;;39.70;;
3259;SDS011;22469;48.150;14.004;2023-03-03T20:35:58;64.27;;;35.93;;
3259;SDS011;22469;48.150;14.004;2023-03-03T20:42:46;70.37;;;40.27;;
3259;SDS011;22469;48.150;14.004;2023-03-03T20:57:51;67.33;;;39.30;;
3259;SDS011;22469;48.150;14.004;2023-03-03T21:03:51;72.73;;;42.17;;
3259;SDS011;22469;48.150;14.004;2023-03-03T21:06:08;66.07;;;39.73;;
3259;SDS011;22469;48.150;14.004;2023-03-03T21:11:20;65.03;;;38.60;;
3259;SDS011;22469;48.150;14.004;2023-03-03T21:13:50;74.70;;;38.10;;
3259;SDS011;22469;48.150;14.004;2023-03-03T21:21:29;66.70;;;37.37;;
3259;SDS011;22469;48.150;14.004;2023-03-03T21:24:05;70.90;;;39.93;;
3259;SDS011;22469;48.150;14.004;2023-03-03T21:32:06;65.73;;;41.20;;
3259;SDS011;22469;48.150;14.004;2023-03-03T21:34:36;65.33;;;42.60;;
3259;SDS011;22469;48.150;14.004;2023-03-03T21:37:07;69.90;;;38.90;;
3259;SDS011;22469;48.150;14.004;2023-03-03T21:39:38;71.33;;;39.63;;
3259;SDS011;22469;48.150;14.004;2023-03-03T21:42:10;71.43;;;41.80;;
3259;SDS011;22469;48.150;14.004;2023-03-03T21:47:06;69.10;;;39.70;;
3259;SDS011;22469;48.150;14.004;2023-03-03T21:49:40;69.43;;;42.17;;
3259;SDS011;22469;48.150;14.004;2023-03-03T21:52:13;72.23;;;37.80;;
3259;SDS011;22469;48.150;14.004;2023-03-03T21:54:43;70.20;;;36.77;;
3259;SDS011;22469;48.150;14.004;2023-03-03T21:57:13;71.90;;;41.20;;
3259;SDS011;22469;48.150;14.004;2023-03-03T21:59:41;63.83;;;37.43;;
3259;SDS011;22469;48.150;14.004;2023-03-03T22:02:09;68.50;;;38.40;;
3259;SDS011;22469;48.150;14.004;2023-03-03T22:04:36;77.33;;;41.50;;
3259;SDS011;22469;48.150;14.004;2023-03-03T22:07:04;70.60;;;38.87;;
3259;SDS011;22469;48.150;14.004;2023-03-03T22:09:32;71.33;;;37.87;;
3259;SDS011;22469;48.150;14.004;2023-03-03T22:12:00;69.33;;;37.93;;
3259;SDS011;22469;48.150;14.004;2023-03-03T22:14:27;79.20;;;41.03;;
3259;SDS011;22469;48.150;14.004;2023-03-03T22:16:54;71.13;;;37.97;;
3259;SDS011;22469;48.150;14.004;2023-03-03T22:19:22;68.60;;;40.33;;
3259;SDS011;22469;48.150;14.004;2023-03-03T22:21:49;70.97;;;40.67;;
3259;SDS011;22469;48.150;14.004;2023-03-03T22:24:17;77.07;;;40.50;;
3259;SDS011;22469;48.150;14.004;2023-03-03T22:26:44;83.63;;;40.57;;
3259;SDS011;22469;48.150;14.004;2023-03-03T22:29:11;69.50;;;41.10;;
3259;SDS011;22469;48.150;14.004;2023-03-03T22:31:41;65.87;;;39.37;;
3259;SDS011;22469;48.150;14.004;2023-03-03T22:34:09;78.90;;;40.70;;
3259;SDS011;22469;48.150;14.004;2023-03-03T22:36:36;67.57;;;39.10;;